Physt, Washington
Current Conditions -  °F | °C
As of 2:22 AM on Thursday 29 Jan 2015 (Local Time) from KCLM Reporting Station
Overcast Overcast  
Wind Chill: 39°   Ceiling: 8000
Heat Index: 39°   Visibility: 10mi
Dew Point: 36°   Wind: 0mph
Humidity: 89%   Direction: NA
Pressure: 30.38"   Gusts: NA
Location:  48.0203°N, 123.478°W
Report Text: KCLM 291022Z AUTO 00000KT 10SM SCT006 OVC080 04/02 A3038 RMK AO2 T00390022 $
Loading
Personal Weather Stations






























Interactive Weather Map New forecast layout! Learn more

10-Day Weather Forecast

Advertisements
Track Severe Weather on mobile